sensor_id;sensor_type;location;lat;lon;timestamp;temperature;humidity
17421;DHT22;8828;48.800;9.540;2023-05-20T00:02:27;13.90;99.90
17421;DHT22;8828;48.800;9.540;2023-05-20T00:04:55;13.90;99.90
17421;DHT22;8828;48.800;9.540;2023-05-20T00:07:23;13.90;99.90
17421;DHT22;8828;48.800;9.540;2023-05-20T00:09:51;13.90;99.90
17421;DHT22;8828;48.800;9.540;2023-05-20T00:12:19;13.90;99.90
17421;DHT22;8828;48.800;9.540;2023-05-20T00:14:47;13.90;99.90
17421;DHT22;8828;48.800;9.540;2023-05-20T00:17:17;13.90;99.90
17421;DHT22;8828;48.800;9.540;2023-05-20T00:19:44;13.90;99.90
17421;DHT22;8828;48.800;9.540;2023-05-20T00:22:12;13.80;99.90
17421;DHT22;8828;48.800;9.540;2023-05-20T00:24:41;13.90;99.90
17421;DHT22;8828;48.800;9.540;2023-05-20T00:27:08;13.90;99.90
17421;DHT22;8828;48.800;9.540;2023-05-20T00:29:36;13.90;99.90
17421;DHT22;8828;48.800;9.540;2023-05-20T00:32:05;13.80;99.90
17421;DHT22;8828;48.800;9.540;2023-05-20T00:34:34;13.80;99.90
17421;DHT22;8828;48.800;9.540;2023-05-20T00:37:02;13.80;99.90
17421;DHT22;8828;48.800;9.540;2023-05-20T00:39:30;13.70;99.90
17421;DHT22;8828;48.800;9.540;2023-05-20T00:41:58;13.70;99.90
17421;DHT22;8828;48.800;9.540;2023-05-20T00:44:29;13.70;99.90
17421;DHT22;8828;48.800;9.540;2023-05-20T00:46:57;13.70;99.90
17421;DHT22;8828;48.800;9.540;2023-05-20T00:49:25;13.70;99.90
17421;DHT22;8828;48.800;9.540;2023-05-20T00:51:54;13.70;99.90
17421;DHT22;8828;48.800;9.540;2023-05-20T00:54:22;13.70;99.90
17421;DHT22;8828;48.800;9.540;2023-05-20T00:56:50;13.70;99.90
17421;DHT22;8828;48.800;9.540;2023-05-20T00:59:18;13.70;99.90
17421;DHT22;8828;48.800;9.540;2023-05-20T01:01:46;13.70;99.90
17421;DHT22;8828;48.800;9.540;2023-05-20T01:04:14;13.70;99.90
17421;DHT22;8828;48.800;9.540;2023-05-20T01:06:42;13.70;99.90
17421;DHT22;8828;48.800;9.540;2023-05-20T01:09:13;13.70;99.90
17421;DHT22;8828;48.800;9.540;2023-05-20T01:11:45;13.70;99.90
17421;DHT22;8828;48.800;9.540;2023-05-20T01:14:16;13.70;99.90
17421;DHT22;8828;48.800;9.540;2023-05-20T01:16:49;13.70;99.90
17421;DHT22;8828;48.800;9.540;2023-05-20T01:19:26;13.60;99.90
17421;DHT22;8828;48.800;9.540;2023-05-20T01:22:00;13.60;99.90
17421;DHT22;8828;48.800;9.540;2023-05-20T01:24:31;13.60;99.90
17421;DHT22;8828;48.800;9.540;2023-05-20T01:26:59;13.60;99.90
17421;DHT22;8828;48.800;9.540;2023-05-20T01:29:27;13.60;99.90
17421;DHT22;8828;48.800;9.540;2023-05-20T01:31:59;13.60;99.90
17421;DHT22;8828;48.800;9.540;2023-05-20T01:34:28;13.50;99.90
17421;DHT22;8828;48.800;9.540;2023-05-20T01:36:56;13.50;99.90
17421;DHT22;8828;48.800;9.540;2023-05-20T01:39:25;13.40;99.90
17421;DHT22;8828;48.800;9.540;2023-05-20T01:41:54;13.40;99.90
17421;DHT22;8828;48.800;9.540;2023-05-20T01:44:23;13.30;99.90
17421;DHT22;8828;48.800;9.540;2023-05-20T01:46:51;13.30;99.90
17421;DHT22;8828;48.800;9.540;2023-05-20T01:49:19;13.30;99.90
17421;DHT22;8828;48.800;9.540;2023-05-20T01:51:47;13.30;99.90
17421;DHT22;8828;48.800;9.540;2023-05-20T01:54:14;13.20;99.90
17421;DHT22;8828;48.800;9.540;2023-05-20T01:56:43;13.20;99.90
17421;DHT22;8828;48.800;9.540;2023-05-20T01:59:13;13.20;99.90
17421;DHT22;8828;48.800;9.540;2023-05-20T02:01:41;13.20;99.90
17421;DHT22;8828;48.800;9.540;2023-05-20T02:04:09;13.20;99.90
17421;DHT22;8828;48.800;9.540;2023-05-20T02:06:37;13.20;99.90
17421;DHT22;8828;48.800;9.540;2023-05-20T02:09:05;13.20;99.90
17421;DHT22;8828;48.800;9.540;2023-05-20T02:11:33;13.20;99.90
17421;DHT22;8828;48.800;9.540;2023-05-20T02:14:01;13.20;99.90
17421;DHT22;8828;48.800;9.540;2023-05-20T02:16:31;13.20;99.90
17421;DHT22;8828;48.800;9.540;2023-05-20T02:18:59;13.20;99.90
17421;DHT22;8828;48.800;9.540;2023-05-20T02:21:27;13.30;99.90
17421;DHT22;8828;48.800;9.540;2023-05-20T02:23:55;13.30;99.90
17421;DHT22;8828;48.800;9.540;2023-05-20T02:26:23;13.30;99.90
17421;DHT22;8828;48.800;9.540;2023-05-20T02:28:52;13.30;99.90
17421;DHT22;8828;48.800;9.540;2023-05-20T02:31:19;13.30;99.90
17421;DHT22;8828;48.800;9.540;2023-05-20T02:33:49;13.30;99.90
17421;DHT22;8828;48.800;9.540;2023-05-20T02:36:17;13.20;99.90
17421;DHT22;8828;48.800;9.540;2023-05-20T02:38:45;13.20;99.90
17421;DHT22;8828;48.800;9.540;2023-05-20T02:41:13;13.20;99.90
17421;DHT22;8828;48.800;9.540;2023-05-20T02:43:41;13.20;99.90
17421;DHT22;8828;48.800;9.540;2023-05-20T02:46:10;13.20;99.90
17421;DHT22;8828;48.800;9.540;2023-05-20T02:48:38;13.20;99.90
17421;DHT22;8828;48.800;9.540;2023-05-20T02:51:07;13.20;99.90
17421;DHT22;8828;48.800;9.540;2023-05-20T02:53:35;13.20;99.90
17421;DHT22;8828;48.800;9.540;2023-05-20T02:56:04;13.20;99.90
17421;DHT22;8828;48.800;9.540;2023-05-20T02:58:32;13.20;99.90
17421;DHT22;8828;48.800;9.540;2023-05-20T03:01:01;13.20;99.90
17421;DHT22;8828;48.800;9.540;2023-05-20T03:03:29;13.10;99.90
17421;DHT22;8828;48.800;9.540;2023-05-20T03:05:57;13.10;99.90
17421;DHT22;8828;48.800;9.540;2023-05-20T03:08:26;13.10;99.90
17421;DHT22;8828;48.800;9.540;2023-05-20T03:10:55;13.10;99.90
17421;DHT22;8828;48.800;9.540;2023-05-20T03:13:23;13.10;99.90
17421;DHT22;8828;48.800;9.540;2023-05-20T03:15:51;13.10;99.90
17421;DHT22;8828;48.800;9.540;2023-05-20T03:18:19;13.10;99.90
17421;DHT22;8828;48.800;9.540;2023-05-20T03:20:47;13.10;99.90
17421;DHT22;8828;48.800;9.540;2023-05-20T03:23:15;13.10;99.90
17421;DHT22;8828;48.800;9.540;2023-05-20T03:25:44;13.10;99.90
17421;DHT22;8828;48.800;9.540;2023-05-20T03:28:13;13.10;99.90
17421;DHT22;8828;48.800;9.540;2023-05-20T03:30:41;13.10;99.90
17421;DHT22;8828;48.800;9.540;2023-05-20T03:33:09;13.10;99.90
17421;DHT22;8828;48.800;9.540;2023-05-20T03:35:37;13.00;99.90
17421;DHT22;8828;48.800;9.540;2023-05-20T03:38:05;13.00;99.90
17421;DHT22;8828;48.800;9.540;2023-05-20T03:40:33;13.00;99.90
17421;DHT22;8828;48.800;9.540;2023-05-20T03:43:02;13.00;99.90
17421;DHT22;8828;48.800;9.540;2023-05-20T03:45:30;13.00;99.90
17421;DHT22;8828;48.800;9.540;2023-05-20T03:48:00;13.00;99.90
17421;DHT22;8828;48.800;9.540;2023-05-20T03:50:29;13.00;99.90
17421;DHT22;8828;48.800;9.540;2023-05-20T03:52:57;13.00;99.90
17421;DHT22;8828;48.800;9.540;2023-05-20T03:55:25;13.00;99.90
17421;DHT22;8828;48.800;9.540;2023-05-20T03:57:54;13.00;99.90
17421;DHT22;8828;48.800;9.540;2023-05-20T04:00:23;12.90;99.90
17421;DHT22;8828;48.800;9.540;2023-05-20T04:02:51;13.00;99.90
17421;DHT22;8828;48.800;9.540;2023-05-20T04:05:19;13.00;99.90
17421;DHT22;8828;48.800;9.540;2023-05-20T04:07:47;13.00;99.90
17421;DHT22;8828;48.800;9.540;2023-05-20T04:10:17;12.90;99.90
17421;DHT22;8828;48.800;9.540;2023-05-20T04:12:45;13.00;99.90
17421;DHT22;8828;48.800;9.540;2023-05-20T04:15:13;13.00;99.90
17421;DHT22;8828;48.800;9.540;2023-05-20T04:17:42;13.00;99.90
17421;DHT22;8828;48.800;9.540;2023-05-20T04:20:14;13.00;99.90
17421;DHT22;8828;48.800;9.540;2023-05-20T04:22:42;13.00;99.90
17421;DHT22;8828;48.800;9.540;2023-05-20T04:25:10;13.00;99.90
17421;DHT22;8828;48.800;9.540;2023-05-20T04:27:38;13.00;99.90
17421;DHT22;8828;48.800;9.540;2023-05-20T04:30:06;13.00;99.90
17421;DHT22;8828;48.800;9.540;2023-05-20T04:32:35;13.10;99.90
17421;DHT22;8828;48.800;9.540;2023-05-20T04:35:06;13.10;99.90
17421;DHT22;8828;48.800;9.540;2023-05-20T04:37:37;13.10;99.90
17421;DHT22;8828;48.800;9.540;2023-05-20T04:40:06;13.10;99.90
17421;DHT22;8828;48.800;9.540;2023-05-20T04:42:35;13.10;99.90
17421;DHT22;8828;48.800;9.540;2023-05-20T04:45:03;13.10;99.90
17421;DHT22;8828;48.800;9.540;2023-05-20T04:47:31;13.10;99.90
17421;DHT22;8828;48.800;9.540;2023-05-20T04:50:08;13.10;99.90
17421;DHT22;8828;48.800;9.540;2023-05-20T04:52:37;13.10;99.90
17421;DHT22;8828;48.800;9.540;2023-05-20T04:55:07;13.20;99.90
17421;DHT22;8828;48.800;9.540;2023-05-20T04:57:36;13.20;99.90
17421;DHT22;8828;48.800;9.540;2023-05-20T05:00:08;13.20;99.90
17421;DHT22;8828;48.800;9.540;2023-05-20T05:02:36;13.30;99.90
17421;DHT22;8828;48.800;9.540;2023-05-20T05:05:06;13.30;99.90
17421;DHT22;8828;48.800;9.540;2023-05-20T05:07:34;13.40;99.90
17421;DHT22;8828;48.800;9.540;2023-05-20T05:10:02;13.40;99.90
17421;DHT22;8828;48.800;9.540;2023-05-20T05:12:30;13.50;99.90
17421;DHT22;8828;48.800;9.540;2023-05-20T05:14:59;13.50;99.90
17421;DHT22;8828;48.800;9.540;2023-05-20T05:17:26;13.60;99.90
17421;DHT22;8828;48.800;9.540;2023-05-20T05:19:55;13.60;99.90
17421;DHT22;8828;48.800;9.540;2023-05-20T05:22:24;13.70;99.90
17421;DHT22;8828;48.800;9.540;2023-05-20T05:24:52;13.70;99.90
17421;DHT22;8828;48.800;9.540;2023-05-20T05:27:21;13.80;99.90
17421;DHT22;8828;48.800;9.540;2023-05-20T05:29:52;13.90;99.90
17421;DHT22;8828;48.800;9.540;2023-05-20T05:32:20;13.90;99.90
17421;DHT22;8828;48.800;9.540;2023-05-20T05:34:48;13.90;99.90
17421;DHT22;8828;48.800;9.540;2023-05-20T05:37:16;14.00;99.90
17421;DHT22;8828;48.800;9.540;2023-05-20T05:39:45;14.10;99.90
17421;DHT22;8828;48.800;9.540;2023-05-20T05:42:13;14.10;99.90
17421;DHT22;8828;48.800;9.540;2023-05-20T05:44:41;14.10;99.90
17421;DHT22;8828;48.800;9.540;2023-05-20T05:47:10;14.10;99.90
17421;DHT22;8828;48.800;9.540;2023-05-20T05:49:38;14.10;99.90
17421;DHT22;8828;48.800;9.540;2023-05-20T05:52:06;14.20;99.90
17421;DHT22;8828;48.800;9.540;2023-05-20T05:54:34;14.20;99.90
17421;DHT22;8828;48.800;9.540;2023-05-20T05:57:04;14.20;99.90
17421;DHT22;8828;48.800;9.540;2023-05-20T05:59:33;14.30;99.90
17421;DHT22;8828;48.800;9.540;2023-05-20T06:02:01;14.30;99.90
17421;DHT22;8828;48.800;9.540;2023-05-20T06:04:29;14.30;99.90
17421;DHT22;8828;48.800;9.540;2023-05-20T06:06:57;14.40;99.90
17421;DHT22;8828;48.800;9.540;2023-05-20T06:09:25;14.40;99.90
17421;DHT22;8828;48.800;9.540;2023-05-20T06:11:54;14.50;99.90
17421;DHT22;8828;48.800;9.540;2023-05-20T06:14:23;14.50;99.90
17421;DHT22;8828;48.800;9.540;2023-05-20T06:16:51;14.60;99.90
17421;DHT22;8828;48.800;9.540;2023-05-20T06:19:19;14.70;99.90
17421;DHT22;8828;48.800;9.540;2023-05-20T06:21:47;14.80;99.90
17421;DHT22;8828;48.800;9.540;2023-05-20T06:24:15;14.90;99.90
17421;DHT22;8828;48.800;9.540;2023-05-20T06:26:43;14.90;99.90
17421;DHT22;8828;48.800;9.540;2023-05-20T06:29:11;15.00;99.90
17421;DHT22;8828;48.800;9.540;2023-05-20T06:31:41;15.00;99.90
17421;DHT22;8828;48.800;9.540;2023-05-20T06:34:09;15.10;99.90
17421;DHT22;8828;48.800;9.540;2023-05-20T06:36:37;15.10;99.90
17421;DHT22;8828;48.800;9.540;2023-05-20T06:39:05;15.10;99.90
17421;DHT22;8828;48.800;9.540;2023-05-20T06:41:38;15.20;99.90
17421;DHT22;8828;48.800;9.540;2023-05-20T06:44:06;15.20;99.90
17421;DHT22;8828;48.800;9.540;2023-05-20T06:46:34;15.30;99.90
17421;DHT22;8828;48.800;9.540;2023-05-20T06:49:04;15.40;99.90
17421;DHT22;8828;48.800;9.540;2023-05-20T06:51:32;15.40;99.90
17421;DHT22;8828;48.800;9.540;2023-05-20T06:54:00;15.40;99.90
17421;DHT22;8828;48.800;9.540;2023-05-20T06:56:28;15.40;99.90
17421;DHT22;8828;48.800;9.540;2023-05-20T06:58:56;15.50;99.90
17421;DHT22;8828;48.800;9.540;2023-05-20T07:01:24;15.50;99.90
17421;DHT22;8828;48.800;9.540;2023-05-20T07:03:52;15.50;99.90
17421;DHT22;8828;48.800;9.540;2023-05-20T07:06:21;15.50;99.90
17421;DHT22;8828;48.800;9.540;2023-05-20T07:08:49;15.50;99.90
17421;DHT22;8828;48.800;9.540;2023-05-20T07:11:17;15.60;99.90
17421;DHT22;8828;48.800;9.540;2023-05-20T07:13:45;15.70;99.90
17421;DHT22;8828;48.800;9.540;2023-05-20T07:16:13;15.70;99.90
17421;DHT22;8828;48.800;9.540;2023-05-20T07:18:41;15.70;99.90
17421;DHT22;8828;48.800;9.540;2023-05-20T07:21:09;15.70;99.90
17421;DHT22;8828;48.800;9.540;2023-05-20T07:23:38;15.70;99.90
17421;DHT22;8828;48.800;9.540;2023-05-20T07:26:06;15.80;99.90
17421;DHT22;8828;48.800;9.540;2023-05-20T07:28:34;15.90;99.90
17421;DHT22;8828;48.800;9.540;2023-05-20T07:31:02;15.90;99.90
17421;DHT22;8828;48.800;9.540;2023-05-20T07:33:30;15.90;99.90
17421;DHT22;8828;48.800;9.540;2023-05-20T07:35:58;16.00;99.90
17421;DHT22;8828;48.800;9.540;2023-05-20T07:38:26;16.10;99.90
17421;DHT22;8828;48.800;9.540;2023-05-20T07:40:55;16.20;99.90
17421;DHT22;8828;48.800;9.540;2023-05-20T07:43:23;16.30;99.90
17421;DHT22;8828;48.800;9.540;2023-05-20T07:45:51;16.40;99.90
17421;DHT22;8828;48.800;9.540;2023-05-20T07:48:19;16.40;99.90
17421;DHT22;8828;48.800;9.540;2023-05-20T07:50:47;16.50;99.90
17421;DHT22;8828;48.800;9.540;2023-05-20T07:53:15;16.50;99.90
17421;DHT22;8828;48.800;9.540;2023-05-20T07:55:43;16.60;99.90
17421;DHT22;8828;48.800;9.540;2023-05-20T07:58:13;16.60;99.90
17421;DHT22;8828;48.800;9.540;2023-05-20T08:00:41;16.60;99.90
17421;DHT22;8828;48.800;9.540;2023-05-20T08:03:08;16.60;99.90
17421;DHT22;8828;48.800;9.540;2023-05-20T08:05:37;16.60;99.90
17421;DHT22;8828;48.800;9.540;2023-05-20T08:08:06;16.70;99.90
17421;DHT22;8828;48.800;9.540;2023-05-20T08:10:36;16.70;99.90
17421;DHT22;8828;48.800;9.540;2023-05-20T08:13:04;16.80;99.90
17421;DHT22;8828;48.800;9.540;2023-05-20T08:15:34;16.80;99.90
17421;DHT22;8828;48.800;9.540;2023-05-20T08:18:03;16.90;99.90
17421;DHT22;8828;48.800;9.540;2023-05-20T08:20:34;17.10;99.90
17421;DHT22;8828;48.800;9.540;2023-05-20T08:23:02;17.20;99.90
17421;DHT22;8828;48.800;9.540;2023-05-20T08:25:30;17.20;99.90
17421;DHT22;8828;48.800;9.540;2023-05-20T08:28:00;17.30;99.90
17421;DHT22;8828;48.800;9.540;2023-05-20T08:30:29;17.40;99.90
17421;DHT22;8828;48.800;9.540;2023-05-20T08:32:59;17.60;99.90
17421;DHT22;8828;48.800;9.540;2023-05-20T08:35:27;17.70;99.90
17421;DHT22;8828;48.800;9.540;2023-05-20T08:37:55;17.80;99.90
17421;DHT22;8828;48.800;9.540;2023-05-20T08:40:23;18.00;99.90
17421;DHT22;8828;48.800;9.540;2023-05-20T08:42:53;18.00;99.90
17421;DHT22;8828;48.800;9.540;2023-05-20T08:45:23;18.00;99.90
17421;DHT22;8828;48.800;9.540;2023-05-20T08:47:54;18.10;99.90
17421;DHT22;8828;48.800;9.540;2023-05-20T08:50:24;18.20;99.90
17421;DHT22;8828;48.800;9.540;2023-05-20T08:52:52;18.20;99.90
17421;DHT22;8828;48.800;9.540;2023-05-20T08:55:24;18.30;99.90
17421;DHT22;8828;48.800;9.540;2023-05-20T08:57:53;18.40;99.90
17421;DHT22;8828;48.800;9.540;2023-05-20T09:00:21;18.40;99.90
17421;DHT22;8828;48.800;9.540;2023-05-20T09:02:53;18.40;99.90
17421;DHT22;8828;48.800;9.540;2023-05-20T09:05:24;18.40;99.90
17421;DHT22;8828;48.800;9.540;2023-05-20T09:07:52;18.50;99.90
17421;DHT22;8828;48.800;9.540;2023-05-20T09:10:20;18.60;99.90
17421;DHT22;8828;48.800;9.540;2023-05-20T09:12:48;18.70;99.90
17421;DHT22;8828;48.800;9.540;2023-05-20T09:15:16;18.70;99.90
17421;DHT22;8828;48.800;9.540;2023-05-20T09:17:44;18.70;99.90
17421;DHT22;8828;48.800;9.540;2023-05-20T09:20:13;18.70;99.90
17421;DHT22;8828;48.800;9.540;2023-05-20T09:22:42;18.80;99.90
17421;DHT22;8828;48.800;9.540;2023-05-20T09:25:10;18.90;99.90
17421;DHT22;8828;48.800;9.540;2023-05-20T09:27:39;18.90;99.90
17421;DHT22;8828;48.800;9.540;2023-05-20T09:30:08;19.00;99.90
17421;DHT22;8828;48.800;9.540;2023-05-20T09:32:38;19.10;99.90
17421;DHT22;8828;48.800;9.540;2023-05-20T09:35:07;19.20;99.90
17421;DHT22;8828;48.800;9.540;2023-05-20T09:37:35;19.30;99.90
17421;DHT22;8828;48.800;9.540;2023-05-20T09:40:07;19.30;99.90
17421;DHT22;8828;48.800;9.540;2023-05-20T09:42:40;19.40;99.90
17421;DHT22;8828;48.800;9.540;2023-05-20T09:45:09;19.50;99.90
17421;DHT22;8828;48.800;9.540;2023-05-20T09:47:38;19.50;99.90
17421;DHT22;8828;48.800;9.540;2023-05-20T09:50:07;19.60;99.90
17421;DHT22;8828;48.800;9.540;2023-05-20T09:52:36;19.60;99.90
17421;DHT22;8828;48.800;9.540;2023-05-20T09:55:08;19.70;99.90
17421;DHT22;8828;48.800;9.540;2023-05-20T09:57:37;19.80;99.90
17421;DHT22;8828;48.800;9.540;2023-05-20T10:00:06;19.80;99.90
17421;DHT22;8828;48.800;9.540;2023-05-20T10:02:37;19.80;99.90
17421;DHT22;8828;48.800;9.540;2023-05-20T10:05:16;19.90;99.90
17421;DHT22;8828;48.800;9.540;2023-05-20T10:08:17;19.90;99.90
17421;DHT22;8828;48.800;9.540;2023-05-20T10:10:55;19.90;99.90
17421;DHT22;8828;48.800;9.540;2023-05-20T10:13:45;20.00;99.90
17421;DHT22;8828;48.800;9.540;2023-05-20T10:16:22;20.00;99.90
17421;DHT22;8828;48.800;9.540;2023-05-20T10:19:03;20.00;99.90
17421;DHT22;8828;48.800;9.540;2023-05-20T10:21:32;20.00;99.90
17421;DHT22;8828;48.800;9.540;2023-05-20T10:24:07;20.00;99.90
17421;DHT22;8828;48.800;9.540;2023-05-20T10:26:37;20.00;99.90
17421;DHT22;8828;48.800;9.540;2023-05-20T10:29:23;20.00;99.90
17421;DHT22;8828;48.800;9.540;2023-05-20T10:31:51;20.00;99.90
17421;DHT22;8828;48.800;9.540;2023-05-20T10:34:21;20.10;99.90
17421;DHT22;8828;48.800;9.540;2023-05-20T10:36:59;20.10;99.90
17421;DHT22;8828;48.800;9.540;2023-05-20T10:39:28;20.10;99.90
17421;DHT22;8828;48.800;9.540;2023-05-20T10:42:15;20.20;99.90
17421;DHT22;8828;48.800;9.540;2023-05-20T10:44:54;20.30;99.90
17421;DHT22;8828;48.800;9.540;2023-05-20T10:47:22;20.40;99.90
17421;DHT22;8828;48.800;9.540;2023-05-20T10:49:52;20.50;99.90
17421;DHT22;8828;48.800;9.540;2023-05-20T10:52:20;20.60;99.90
17421;DHT22;8828;48.800;9.540;2023-05-20T10:54:54;20.60;99.90
17421;DHT22;8828;48.800;9.540;2023-05-20T10:57:27;20.70;99.90
17421;DHT22;8828;48.800;9.540;2023-05-20T10:59:55;20.80;99.90
17421;DHT22;8828;48.800;9.540;2023-05-20T11:02:25;20.80;99.90
17421;DHT22;8828;48.800;9.540;2023-05-20T11:04:55;20.90;99.90
17421;DHT22;8828;48.800;9.540;2023-05-20T11:07:24;20.90;99.90
17421;DHT22;8828;48.800;9.540;2023-05-20T11:09:53;21.00;99.90
17421;DHT22;8828;48.800;9.540;2023-05-20T11:12:24;21.00;99.90
17421;DHT22;8828;48.800;9.540;2023-05-20T11:14:53;21.10;99.90
17421;DHT22;8828;48.800;9.540;2023-05-20T11:17:21;21.10;99.90
17421;DHT22;8828;48.800;9.540;2023-05-20T11:19:49;21.10;99.90
17421;DHT22;8828;48.800;9.540;2023-05-20T11:22:17;21.20;99.90
17421;DHT22;8828;48.800;9.540;2023-05-20T11:24:45;21.20;99.90
17421;DHT22;8828;48.800;9.540;2023-05-20T11:27:13;21.20;99.90
17421;DHT22;8828;48.800;9.540;2023-05-20T11:29:43;21.20;99.90
17421;DHT22;8828;48.800;9.540;2023-05-20T11:32:11;21.20;99.90
17421;DHT22;8828;48.800;9.540;2023-05-20T11:34:42;21.30;99.90
17421;DHT22;8828;48.800;9.540;2023-05-20T11:37:10;21.30;99.90
17421;DHT22;8828;48.800;9.540;2023-05-20T11:39:39;21.30;99.90
17421;DHT22;8828;48.800;9.540;2023-05-20T11:42:07;21.30;99.90
17421;DHT22;8828;48.800;9.540;2023-05-20T11:44:35;21.30;99.90
17421;DHT22;8828;48.800;9.540;2023-05-20T11:47:05;21.30;99.90
17421;DHT22;8828;48.800;9.540;2023-05-20T11:49:38;21.30;99.90
17421;DHT22;8828;48.800;9.540;2023-05-20T11:52:08;21.30;99.90
17421;DHT22;8828;48.800;9.540;2023-05-20T11:54:37;21.40;99.90
17421;DHT22;8828;48.800;9.540;2023-05-20T11:57:05;21.50;99.90
17421;DHT22;8828;48.800;9.540;2023-05-20T11:59:33;21.60;99.90
17421;DHT22;8828;48.800;9.540;2023-05-20T12:02:02;21.60;99.90
17421;DHT22;8828;48.800;9.540;2023-05-20T12:04:31;21.60;99.90
17421;DHT22;8828;48.800;9.540;2023-05-20T12:06:59;21.60;99.90
17421;DHT22;8828;48.800;9.540;2023-05-20T12:09:29;21.60;99.90
17421;DHT22;8828;48.800;9.540;2023-05-20T12:11:57;21.50;99.90
17421;DHT22;8828;48.800;9.540;2023-05-20T12:14:25;21.50;99.90
17421;DHT22;8828;48.800;9.540;2023-05-20T12:16:53;21.50;99.90
17421;DHT22;8828;48.800;9.540;2023-05-20T12:19:21;21.40;99.90
17421;DHT22;8828;48.800;9.540;2023-05-20T12:21:51;21.40;99.90
17421;DHT22;8828;48.800;9.540;2023-05-20T12:24:19;21.40;99.90
17421;DHT22;8828;48.800;9.540;2023-05-20T12:26:47;21.30;99.90
17421;DHT22;8828;48.800;9.540;2023-05-20T12:29:15;21.30;99.90
17421;DHT22;8828;48.800;9.540;2023-05-20T12:31:43;21.30;99.90
17421;DHT22;8828;48.800;9.540;2023-05-20T12:34:11;21.20;99.90
17421;DHT22;8828;48.800;9.540;2023-05-20T12:36:39;21.20;99.90
17421;DHT22;8828;48.800;9.540;2023-05-20T12:39:09;21.20;99.90
17421;DHT22;8828;48.800;9.540;2023-05-20T12:41:38;21.20;99.90
17421;DHT22;8828;48.800;9.540;2023-05-20T12:44:06;21.10;99.90
17421;DHT22;8828;48.800;9.540;2023-05-20T12:46:34;21.20;99.90
17421;DHT22;8828;48.800;9.540;2023-05-20T12:49:02;21.10;99.90
17421;DHT22;8828;48.800;9.540;2023-05-20T12:51:30;21.20;99.90
17421;DHT22;8828;48.800;9.540;2023-05-20T12:53:58;21.30;99.90
17421;DHT22;8828;48.800;9.540;2023-05-20T12:56:27;21.40;99.90
17421;DHT22;8828;48.800;9.540;2023-05-20T12:58:56;21.50;99.90
17421;DHT22;8828;48.800;9.540;2023-05-20T13:01:24;21.70;99.90
17421;DHT22;8828;48.800;9.540;2023-05-20T13:03:52;21.80;99.90
17421;DHT22;8828;48.800;9.540;2023-05-20T13:06:21;21.90;99.90
17421;DHT22;8828;48.800;9.540;2023-05-20T13:08:49;22.00;99.90
17421;DHT22;8828;48.800;9.540;2023-05-20T13:11:17;22.00;99.90
17421;DHT22;8828;48.800;9.540;2023-05-20T13:13:46;22.00;99.90
17421;DHT22;8828;48.800;9.540;2023-05-20T13:16:14;22.10;99.90
17421;DHT22;8828;48.800;9.540;2023-05-20T13:18:43;22.10;99.90
17421;DHT22;8828;48.800;9.540;2023-05-20T13:21:11;22.10;99.90
17421;DHT22;8828;48.800;9.540;2023-05-20T13:23:40;22.10;99.90
17421;DHT22;8828;48.800;9.540;2023-05-20T13:26:08;22.10;99.90
17421;DHT22;8828;48.800;9.540;2023-05-20T13:28:37;22.20;99.90
17421;DHT22;8828;48.800;9.540;2023-05-20T13:31:06;22.20;99.90
17421;DHT22;8828;48.800;9.540;2023-05-20T13:33:34;22.20;99.90
17421;DHT22;8828;48.800;9.540;2023-05-20T13:36:02;22.20;99.90
17421;DHT22;8828;48.800;9.540;2023-05-20T13:38:30;22.20;99.90
17421;DHT22;8828;48.800;9.540;2023-05-20T13:41:00;22.20;99.90
17421;DHT22;8828;48.800;9.540;2023-05-20T13:43:30;22.10;99.90
17421;DHT22;8828;48.800;9.540;2023-05-20T13:45:58;22.10;99.90
17421;DHT22;8828;48.800;9.540;2023-05-20T13:48:28;22.00;99.90
17421;DHT22;8828;48.800;9.540;2023-05-20T13:50:59;22.00;99.90
17421;DHT22;8828;48.800;9.540;2023-05-20T13:53:27;22.00;99.90
17421;DHT22;8828;48.800;9.540;2023-05-20T13:55:56;21.90;99.90
17421;DHT22;8828;48.800;9.540;2023-05-20T13:58:24;21.90;99.90
17421;DHT22;8828;48.800;9.540;2023-05-20T14:00:52;21.90;99.90
17421;DHT22;8828;48.800;9.540;2023-05-20T14:03:20;21.90;99.90
17421;DHT22;8828;48.800;9.540;2023-05-20T14:05:50;21.80;99.90
17421;DHT22;8828;48.800;9.540;2023-05-20T14:08:18;21.80;99.90
17421;DHT22;8828;48.800;9.540;2023-05-20T14:10:46;21.90;99.90
17421;DHT22;8828;48.800;9.540;2023-05-20T14:13:14;21.90;99.90
17421;DHT22;8828;48.800;9.540;2023-05-20T14:15:42;21.90;99.90
17421;DHT22;8828;48.800;9.540;2023-05-20T14:18:10;21.90;99.90
17421;DHT22;8828;48.800;9.540;2023-05-20T14:20:38;21.90;99.90
17421;DHT22;8828;48.800;9.540;2023-05-20T14:23:08;22.00;99.90
17421;DHT22;8828;48.800;9.540;2023-05-20T14:25:36;22.00;99.90
17421;DHT22;8828;48.800;9.540;2023-05-20T14:28:04;22.00;99.90
17421;DHT22;8828;48.800;9.540;2023-05-20T14:30:32;22.00;99.90
17421;DHT22;8828;48.800;9.540;2023-05-20T14:33:00;22.00;99.90
17421;DHT22;8828;48.800;9.540;2023-05-20T14:35:29;22.10;99.90
17421;DHT22;8828;48.800;9.540;2023-05-20T14:37:56;22.10;99.90
17421;DHT22;8828;48.800;9.540;2023-05-20T14:40:26;22.10;99.90
17421;DHT22;8828;48.800;9.540;2023-05-20T14:42:54;22.10;99.90
17421;DHT22;8828;48.800;9.540;2023-05-20T14:45:22;22.10;99.90
17421;DHT22;8828;48.800;9.540;2023-05-20T14:47:50;22.00;99.90
17421;DHT22;8828;48.800;9.540;2023-05-20T14:50:18;22.10;99.90
17421;DHT22;8828;48.800;9.540;2023-05-20T14:52:46;22.10;99.90
17421;DHT22;8828;48.800;9.540;2023-05-20T14:55:14;22.10;99.90
17421;DHT22;8828;48.800;9.540;2023-05-20T14:57:43;22.10;99.90
17421;DHT22;8828;48.800;9.540;2023-05-20T15:00:12;22.10;99.90
17421;DHT22;8828;48.800;9.540;2023-05-20T15:02:40;22.10;99.90
17421;DHT22;8828;48.800;9.540;2023-05-20T15:05:08;22.10;99.90
17421;DHT22;8828;48.800;9.540;2023-05-20T15:07:37;22.00;99.90
17421;DHT22;8828;48.800;9.540;2023-05-20T15:10:06;22.00;99.90
17421;DHT22;8828;48.800;9.540;2023-05-20T15:12:34;22.00;99.90
17421;DHT22;8828;48.800;9.540;2023-05-20T15:15:04;22.00;99.90
17421;DHT22;8828;48.800;9.540;2023-05-20T15:17:32;21.90;99.90
17421;DHT22;8828;48.800;9.540;2023-05-20T15:20:01;21.90;99.90
17421;DHT22;8828;48.800;9.540;2023-05-20T15:22:29;21.90;99.90
17421;DHT22;8828;48.800;9.540;2023-05-20T15:24:57;21.80;99.90
17421;DHT22;8828;48.800;9.540;2023-05-20T15:27:25;21.80;99.90
17421;DHT22;8828;48.800;9.540;2023-05-20T15:29:53;21.80;99.90
17421;DHT22;8828;48.800;9.540;2023-05-20T15:32:22;21.80;99.90
17421;DHT22;8828;48.800;9.540;2023-05-20T15:34:50;21.80;99.90
17421;DHT22;8828;48.800;9.540;2023-05-20T15:37:19;21.80;99.90
17421;DHT22;8828;48.800;9.540;2023-05-20T15:39:47;21.80;99.90
17421;DHT22;8828;48.800;9.540;2023-05-20T15:42:15;21.80;99.90
17421;DHT22;8828;48.800;9.540;2023-05-20T15:44:44;21.80;99.90
17421;DHT22;8828;48.800;9.540;2023-05-20T15:47:12;21.80;99.90
17421;DHT22;8828;48.800;9.540;2023-05-20T15:49:42;21.80;99.90
17421;DHT22;8828;48.800;9.540;2023-05-20T15:52:10;21.80;99.90
17421;DHT22;8828;48.800;9.540;2023-05-20T15:54:39;21.80;99.90
17421;DHT22;8828;48.800;9.540;2023-05-20T15:57:07;21.90;99.90